NEODyS-2

Near Earth Objects - Dynamic Site
NEODyS ∴ Observatories ∴ Site 691 ∴ Obs & residuals
Contact »
691  ▹ 
OBSERVATIONS AND RESIDUALS

691-Steward Observatory, Kitt Peak-Spacewatch

Detections | Residuals | Detections & Residuals

[1-200] [201-400] [401-600] [601-800] [801-1000] [1001-1200] [1201-1400] [1401-1600] [1601-1800] [1801-2000] [2001-2200] [2201-2400] [2401-2600] [2601-2800] [2801-3000] [3001-3200] [3201-3400] [3401-3600] [3601-3800] [3801-4000] [4001-4200] [4201-4400] [4401-4600] [4601-4800] [4801-5000] [5001-5200] [5201-5400] [5401-5600] [5601-5800] [5801-6000] [6001-6200] [6201-6400] [6401-6600] [6601-6800] [6801-7000] [7001-7200] [7201-7400] [7401-7600] [7601-7800] [7801-8000] [8001-8200] [8201-8400] [8401-8600] [8601-8800] [8801-9000] [9001-9200] [9201-9400] [9401-9600] [9601-9800] [9801-10000] [10001-10200] [10201-10400] [10401-10600] [10601-10800] [10801-11000] [11001-11200] [11201-11400] [11401-11600] [11601-11800] [11801-12000] [12001-12200] [12201-12400] [12401-12600] [12601-12800] [12801-13000] [13001-13200] [13201-13400] [13401-13600] [13601-13800] [13801-14000] [14001-14200] [14201-14400] [14401-14600] [14601-14800] [14801-15000] [15001-15200] [15201-15400] [15401-15600] [15601-15800] [15801-16000] [16001-16200] [16201-16400] [16401-16600] [16601-16800] [16801-17000] [17001-17200] [17201-17400] [17401-17600] [17601-17800] [17801-18000] [18001-18200] [18201-18400] [18401-18600] [18601-18800] [18801-19000] [19001-19200] [19201-19400] [19401-19600] [19601-19800] [19801-20000] [20001-20200] [20201-20400] [20401-20600] [20601-20800] [20801-21000] [21001-21200] [21201-21400] [21401-21600] [21601-21800] [21801-22000] [22001-22200] [22201-22400] [22401-22600] [22601-22800] [22801-23000] [23001-23200] [23201-23400] [23401-23600] [23601-23800] [23801-24000] [24001-24200] [24201-24400] [24401-24600] [24601-24800] [24801-25000] [25001-25200] [25201-25400] [25401-25600] [25601-25800] [25801-26000] [26001-26200] [26201-26400] [26401-26600] [26601-26800] [26801-27000] [27001-27200] [27201-27400] [27401-27600] [27601-27800] [27801-28000] [28001-28200] [28201-28400] [28401-28600] [28601-28800] [28801-29000] [29001-29200] [29201-29400] [29401-29600] [29601-29800] [29801-30000] [30001-30200] [30201-30400] [30401-30600] [30601-30800] [30801-31000] [31001-31200] [31201-31400] [31401-31600] [31601-31800] [31801-32000] [32001-32200] [32201-32400] [32401-32600] [32601-32800] [32801-33000] [33001-33200] [33201-33400] [33401-33600] [33601-33800] [33801-34000] [34001-34200] [34201-34400] [34401-34600] [34601-34800] [34801-35000] [35001-35200] [35201-35400] [35401-35600] [35601-35800] [35801-36000] [36001-36200] [36201-36400] [36401-36600] [36601-36800] [36801-37000] [37001-37200] [37201-37400] [37401-37600] [37601-37800] [37801-38000] [38001-38200] [38201-38400] [38401-38600] [38601-38800] [38801-39000] [39001-39200] [39201-39400] [39401-39600] [39601-39800] [39801-40000] [40001-40200] [40201-40400] [40401-40600] [40601-40800] [40801-41000] [41001-41200] [41201-41400] [41401-41600] [41601-41800] [41801-42000] [42001-42200] [42201-42400] [42401-42600] [42601-42800] [42801-43000] [43001-43200] [43201-43400] [43401-43600] [43601-43800] [43801-44000] [44001-44200] [44201-44400] [44401-44600] [44601-44800] [44801-45000] [45001-45200] [45201-45400] [45401-45600] [45601-45800] [45801-46000] [46001-46200] [46201-46400] [46401-46600] [46601-46800] [46801-47000] [47001-47200] [47201-47400] [47401-47600] [47601-47800] [47801-48000] [48001-48200] [48201-48400] [48401-48600] [48601-48800] [48801-49000] [49001-49200] [49201-49400] [49401-49600] [49601-49800] [49801-50000] [50001-50200] [50201-50388]

Designation T Tech N Date Right Ascension Declination Apparent Magnitude Star Catalog Site code χ Used A Used M
yr-mo-day precision hr:min:sec precision rms F bias residual deg min sec precision rms F bias residual mag/col rms residual
2008AM33 O C 2008-02-02.49959 1.000E-05 12:04:34.280 1.500E-01 0.500 F 0.109 -0.842 -02° 28' 50.20" 1.000E-01 0.500 F 0.167 0.043 19.7 V 0.70 -0.01 o 691 1.74 Yes Yes
2003WC25 O C H 2008-02-03.21063 1.000E-05 10:22:38.970 1.500E-01 0.500 F 0.061 0.265 +16° 15' 13.10" 1.000E-01 0.500 F 0.148 0.286 21.2 V 0.70 0.15 o 691 0.78 Yes Yes
2003WC25 O C H 2008-02-03.22827 1.000E-05 10:22:37.780 1.500E-01 0.500 F 0.061 -0.415 +16° 15' 17.40" 1.000E-01 0.500 F 0.148 -0.152 21.0 V 0.70 -0.05 o 691 0.89 Yes Yes
2003WC25 O C H 2008-02-03.24589 1.000E-05 10:22:36.660 1.500E-01 0.500 F 0.061 -0.067 +16° 15' 22.00" 1.000E-01 0.500 F 0.148 -0.277 o 691 0.57 Yes No
2008BO16 O C t 2008-02-03.26737 1.000E-05 10:46:50.140 1.500E-01 0.500 F 0.137 0.844 +11° 23' 21.40" 1.000E-01 0.500 F 0.168 -0.982 20.5 V 0.70 -0.03 o 691 2.67 Yes Yes
2000EX106 O C 2008-02-03.27994 1.000E-05 10:54:58.850 1.500E-01 0.500 F 0.142 -0.030 +10° 14' 24.70" 1.000E-01 0.500 F 0.041 -0.147 18.1 V 0.70 0.20 o 691 0.30 Yes Yes
2008BO16 O C t 2008-02-03.28502 1.000E-05 10:46:40.330 1.500E-01 0.500 F 0.137 2.326 +11° 24' 52.60" 1.000E-01 0.500 F 0.168 -2.236 20.3 V 0.70 -0.23 o 691 6.26 No Yes
2000EX106 O C 2008-02-03.29759 1.000E-05 10:54:57.260 1.500E-01 0.500 F 0.142 -0.343 +10° 14' 53.90" 1.000E-01 0.500 F 0.041 -0.064 18.2 V 0.70 0.30 o 691 0.70 Yes Yes
2008BO16 O C t 2008-02-03.30267 1.000E-05 10:46:30.260 1.500E-01 0.500 F 0.137 0.039 +11° 26' 26.90" 1.000E-01 0.500 F 0.168 -0.103 20.4 V 0.70 -0.13 o 691 0.23 Yes Yes
2000EX106 O C 2008-02-03.31389 1.000E-05 10:54:55.810 1.500E-01 0.500 F 0.142 -0.238 +10° 15' 20.80" 1.000E-01 0.500 F 0.041 -0.039 18.1 V 0.70 0.20 o 691 0.48 Yes Yes
1998YP11 O C 2008-02-03.33553 1.000E-05 11:08:58.220 1.500E-01 0.500 F 0.135 -0.220 +03° 41' 54.20" 1.000E-01 0.500 F 0.078 0.136 16.1 V 0.70 0.02 o 691 0.52 Yes Yes
1998YP11 O C 2008-02-03.35313 1.000E-05 11:08:59.750 1.500E-01 0.500 F 0.135 -0.161 +03° 42' 21.60" 1.000E-01 0.500 F 0.078 0.132 16.1 V 0.70 0.02 o 691 0.42 Yes Yes
1998YP11 O C 2008-02-03.37075 1.000E-05 11:09:01.270 1.500E-01 0.500 F 0.135 -0.206 +03° 42' 49.00" 1.000E-01 0.500 F 0.078 0.084 16.1 V 0.70 0.02 o 691 0.45 Yes Yes
2004CR2 O C 2008-02-03.38439 1.000E-05 11:39:06.740 1.500E-01 0.500 F 0.178 -0.643 +05° 01' 33.70" 1.000E-01 0.500 F 0.267 -0.005 20.8 V 0.70 -0.17 o 691 1.29 Yes Yes
2004CR2 O C 2008-02-03.39963 1.000E-05 11:39:07.030 1.500E-01 0.500 F 0.178 -0.317 +05° 01' 30.50" 1.000E-01 0.500 F 0.267 -0.119 20.6 V 0.70 -0.37 o 691 0.68 Yes Yes
2004CR2 O C 2008-02-03.41486 1.000E-05 11:39:07.310 1.500E-01 0.500 F 0.178 -0.117 +05° 01' 27.80" 1.000E-01 0.500 F 0.267 0.271 20.5 V 0.70 -0.47 o 691 0.59 Yes Yes
1996AJ1 O C H 2008-02-07.14338 1.000E-05 07:12:42.920 1.500E-01 0.500 F -0.094 -0.155 +25° 19' 59.70" 1.000E-01 0.500 F 0.153 -1.036 o 691 2.11 Yes No
2008CA6 O C 2008-02-07.14598 1.000E-05 07:12:35.790 1.500E-01 0.500 F -0.052 -0.216 +22° 55' 43.60" 1.000E-01 0.500 F 0.231 -0.367 21.0 V 0.70 0.59 o 691 0.86 Yes Yes
2008BS2 O C H 2008-02-07.15132 1.000E-05 07:23:51.580 1.500E-01 0.500 F -0.008 0.666 +26° 27' 10.80" 1.000E-01 0.500 F 0.197 -0.099 21.2 V 0.70 -0.27 o 691 1.36 Yes Yes
2007YF1 O C 2008-02-07.15407 1.000E-05 07:23:48.560 1.500E-01 0.500 F 0.016 -0.060 +20° 55' 33.60" 1.000E-01 0.500 F 0.231 0.014 20.2 V 0.70 -0.48 o 691 0.12 Yes Yes
1996AJ1 O C H 2008-02-07.15678 1.000E-05 07:12:41.450 1.500E-01 0.500 F -0.094 0.470 +25° 20' 02.10" 1.000E-01 0.500 F 0.153 -0.309 21.9 V 0.70 -0.11 o 691 1.13 Yes Yes
2008CA6 O C 2008-02-07.15937 1.000E-05 07:12:33.680 1.500E-01 0.500 F -0.052 0.378 +22° 55' 37.90" 1.000E-01 0.500 F 0.231 -0.090 21.0 V 0.70 0.59 o 691 0.80 Yes Yes
2008BS2 O C H 2008-02-07.16471 1.000E-05 07:23:50.350 1.500E-01 0.500 F -0.008 -0.354 +26° 27' 08.10" 1.000E-01 0.500 F 0.197 -0.209 21.1 V 0.70 -0.37 o 691 0.83 Yes Yes
2007YF1 O C 2008-02-07.16747 1.000E-05 07:23:48.230 1.500E-01 0.500 F 0.016 0.534 +20° 55' 44.10" 1.000E-01 0.500 F 0.231 -0.722 21.3 V 0.70 0.62 o 691 1.81 Yes Yes
2008CA6 O C 2008-02-07.17275 1.000E-05 07:12:31.480 1.500E-01 0.500 F -0.052 -0.243 +22° 55' 31.90" 1.000E-01 0.500 F 0.231 -0.069 20.7 V 0.70 0.29 o 691 0.52 Yes Yes
2008BS2 O C H 2008-02-07.17812 1.000E-05 07:23:49.240 1.500E-01 0.500 F -0.008 0.272 +26° 27' 05.60" 1.000E-01 0.500 F 0.197 -0.100 o 691 0.58 Yes No
2007YF1 O C 2008-02-07.18087 1.000E-05 07:23:47.820 1.500E-01 0.500 F 0.016 0.026 +20° 55' 55.80" 1.000E-01 0.500 F 0.231 -0.235 20.1 V 0.70 -0.58 o 691 0.48 Yes Yes
2005OE3 O C H 2008-02-07.20879 1.000E-05 09:49:32.910 1.500E-01 0.500 F -0.004 -0.313 +13° 51' 50.50" 1.000E-01 0.500 F 0.227 0.045 21.1 V 0.70 0.30 o 691 0.65 Yes Yes
2005OE3 O C H 2008-02-07.22642 1.000E-05 09:49:29.710 1.500E-01 0.500 F -0.004 -0.016 +13° 51' 36.10" 1.000E-01 0.500 F 0.227 -1.070 o 691 2.18 Yes No
2005OE3 O C H 2008-02-07.24403 1.000E-05 09:49:26.420 1.500E-01 0.500 F -0.004 -1.000 +13° 51' 23.50" 1.000E-01 0.500 F 0.227 -0.376 21.5 V 0.70 0.70 o 691 2.15 Yes Yes
2003WC25 O C 2008-02-07.25059 1.000E-05 10:18:14.880 1.500E-01 0.500 F 0.062 -0.254 +16° 32' 52.20" 1.000E-01 0.500 F 0.168 -0.170 20.6 V 0.70 -0.37 o 691 0.61 Yes Yes
2008BO16 O C t 2008-02-07.25059 1.000E-05 10:16:45.830 1.500E-01 0.500 F 0.029 2.723 +15° 55' 06.80" 1.000E-01 0.500 F 0.113 -1.585 21.0 V 0.70 0.23 o 691 6.17 No Yes
2003WC25 O C 2008-02-07.26823 1.000E-05 10:18:13.650 1.500E-01 0.500 F 0.062 -0.702 +16° 32' 56.30" 1.000E-01 0.500 F 0.168 -0.726 20.4 V 0.70 -0.57 o 691 2.02 Yes Yes
2008BO16 O C t 2008-02-07.26823 1.000E-05 10:16:38.920 1.500E-01 0.500 F 0.029 0.444 +15° 56' 04.70" 1.000E-01 0.500 F 0.113 -0.087 20.4 V 0.70 -0.37 o 691 0.92 Yes Yes
2003WC25 O C 2008-02-07.28587 1.000E-05 10:18:12.480 1.500E-01 0.500 F 0.062 -0.260 +16° 33' 01.40" 1.000E-01 0.500 F 0.168 -0.271 20.7 V 0.70 -0.27 o 691 0.75 Yes Yes
2008BO16 O C t 2008-02-07.28587 1.000E-05 10:16:32.160 1.500E-01 0.500 F 0.029 0.388 +15° 57' 00.50" 1.000E-01 0.500 F 0.113 -0.477 20.9 V 0.70 0.13 o 691 1.25 Yes Yes
2000EX106 O C 2008-02-07.30745 1.000E-05 10:48:46.830 1.500E-01 0.500 F 0.059 0.131 +12° 09' 28.30" 1.000E-01 0.500 F 0.098 0.004 17.7 V 0.70 0.01 o 691 0.26 Yes Yes
2000EX106 O C 2008-02-07.32506 1.000E-05 10:48:44.920 1.500E-01 0.500 F 0.059 -0.067 +12° 09' 59.90" 1.000E-01 0.500 F 0.098 0.027 17.6 V 0.70 -0.09 o 691 0.14 Yes Yes
2000EX106 O C 2008-02-07.34271 1.000E-05 10:48:43.030 1.500E-01 0.500 F 0.059 0.184 +12° 10' 31.70" 1.000E-01 0.500 F 0.098 0.208 17.7 V 0.70 0.01 o 691 0.56 Yes Yes
2008CC6 O C 2008-02-07.37314 1.000E-05 10:52:52.890 1.500E-01 0.500 F 0.068 0.015 +04° 18' 47.60" 1.000E-01 0.500 F 0.041 0.144 20.5 V 0.70 -0.20 o 691 0.30 Yes Yes
1998YP11 O C H 2008-02-07.38803 1.000E-05 11:15:27.800 1.500E-01 0.500 F 0.112 -0.097 +05° 39' 36.10" 1.000E-01 0.500 F 0.181 -0.072 16.1 V 0.70 0.30 o 691 0.24 Yes Yes
2008CC6 O C 2008-02-07.39072 1.000E-05 10:52:50.930 1.500E-01 0.500 F 0.068 -0.200 +04° 19' 11.90" 1.000E-01 0.500 F 0.041 0.070 20.4 V 0.70 -0.30 o 691 0.46 Yes Yes
1998YP11 O C H 2008-02-07.40855 1.000E-05 11:15:29.640 1.500E-01 0.500 F 0.112 -0.260 +05° 40' 15.90" 1.000E-01 0.500 F 0.181 -0.119 16.1 V 0.70 0.31 o 691 0.57 Yes Yes
2008CC6 O C 2008-02-07.41125 1.000E-05 10:52:48.650 1.500E-01 0.500 F 0.068 -0.249 +04° 19' 40.60" 1.000E-01 0.500 F 0.041 0.268 20.0 V 0.70 -0.69 o 691 0.78 Yes Yes
2007VY7 O C 2008-02-07.50567 1.000E-05 16:19:31.090 1.500E-01 0.500 F 0.061 -0.318 -03° 17' 52.90" 1.000E-01 0.500 F 0.274 0.272 19.6 V 0.70 0.30 o 691 0.88 Yes Yes
2007VY7 O C 2008-02-07.51825 1.000E-05 16:19:31.030 1.500E-01 0.500 F 0.061 0.010 -03° 17' 45.50" 1.000E-01 0.500 F 0.274 0.079 19.6 V 0.70 0.30 o 691 0.17 Yes Yes
2007VY7 O C 2008-02-07.53083 1.000E-05 16:19:30.940 1.500E-01 0.500 F 0.061 -0.007 -03° 17' 37.80" 1.000E-01 0.500 F 0.274 0.181 20.0 V 0.70 0.70 o 691 0.39 Yes Yes
2000YJ66 O C H 2008-02-08.13774 1.000E-05 06:46:47.790 1.500E-01 0.500 F 0.049 -0.055 +25° 09' 32.90" 1.000E-01 0.500 F 0.183 -0.172 19.2 V 0.70 0.25 o 691 0.36 Yes Yes
2000YJ66 O C H 2008-02-08.15090 1.000E-05 06:46:47.400 1.500E-01 0.500 F 0.049 0.460 +25° 09' 30.80" 1.000E-01 0.500 F 0.183 -0.295 o 691 1.10 Yes No
2000YJ66 O C H 2008-02-08.16145 1.000E-05 06:46:47.030 1.500E-01 0.500 F 0.049 0.100 +25° 09' 28.70" 1.000E-01 0.500 F 0.183 -0.801 o 691 1.62 Yes No
2004HW O C 2008-02-08.23941 1.000E-05 10:31:05.400 1.500E-01 0.500 F 0.168 -0.536 +08° 02' 08.40" 1.000E-01 0.500 F 0.106 0.249 21.1 V 0.70 -0.08 o 691 1.19 Yes Yes
2004HW O C 2008-02-08.25700 1.000E-05 10:31:04.320 1.500E-01 0.500 F 0.168 -1.253 +08° 02' 14.10" 1.000E-01 0.500 F 0.106 0.183 21.2 V 0.70 0.02 o 691 2.54 Yes Yes
2004HW O C 2008-02-08.27460 1.000E-05 10:31:03.350 1.500E-01 0.500 F 0.168 -0.289 +08° 02' 20.00" 1.000E-01 0.500 F 0.106 0.317 20.9 V 0.70 -0.28 o 691 0.86 Yes Yes
2008CP23 O C 2008-02-08.28351 1.000E-05 10:47:24.610 1.500E-01 0.500 F 0.175 -0.510 +09° 28' 31.50" 1.000E-01 0.500 F 0.228 -0.057 20.0 V 0.70 -0.13 o 691 1.05 Yes Yes
2001XT1 O C H 2008-02-08.28858 1.000E-05 10:35:57.240 1.500E-01 0.500 F 0.134 0.197 +07° 40' 35.50" 1.000E-01 0.500 F 0.188 -0.495 o 691 1.07 Yes No
2008CP23 O C 2008-02-08.30111 1.000E-05 10:47:24.480 1.500E-01 0.500 F 0.175 -0.212 +09° 28' 39.60" 1.000E-01 0.500 F 0.228 -0.152 20.1 V 0.70 -0.02 o 691 0.53 Yes Yes
2001XT1 O C H 2008-02-08.30618 1.000E-05 10:35:55.560 1.500E-01 0.500 F 0.134 0.249 +07° 40' 44.30" 1.000E-01 0.500 F 0.188 -0.248 o 691 0.71 Yes No
2008CP23 O C 2008-02-08.31871 1.000E-05 10:47:24.320 1.500E-01 0.500 F 0.175 -0.276 +09° 28' 47.30" 1.000E-01 0.500 F 0.228 -0.632 19.8 V 0.70 -0.32 o 691 1.39 Yes Yes
2000GK137 O C H 2008-02-08.39249 1.000E-05 11:25:15.250 1.500E-01 0.500 F 0.136 -0.230 +02° 20' 27.40" 1.000E-01 0.500 F 0.097 0.130 21.3 V 0.70 -0.30 o 691 0.53 Yes Yes
2000GK137 O C H 2008-02-08.41008 1.000E-05 11:25:14.470 1.500E-01 0.500 F 0.136 -0.285 +02° 20' 34.30" 1.000E-01 0.500 F 0.097 -0.147 21.4 V 0.70 -0.20 o 691 0.64 Yes Yes
2000GK137 O C H 2008-02-08.42514 1.000E-05 11:25:13.820 1.500E-01 0.500 F 0.136 -0.060 +02° 20' 40.20" 1.000E-01 0.500 F 0.097 -0.394 21.1 V 0.70 -0.50 o 691 0.80 Yes Yes
2020WL1 O C 2008-02-09.11121 1.000E-05 07:08:24.560 1.500E-01 0.500 F -0.081 -0.314 +24° 19' 30.90" 1.000E-01 0.500 F 0.205 0.017 20.5 V 0.70 -0.35 o 691 0.67 Yes Yes
2008CA6 O C 2008-02-09.11922 1.000E-05 07:07:36.020 1.500E-01 0.500 F -0.084 -0.109 +22° 39' 39.20" 1.000E-01 0.500 F 0.219 -0.044 20.2 V 0.70 -0.23 o 691 0.24 Yes Yes
2008BS2 O C H 2008-02-09.12456 1.000E-05 07:21:10.300 1.500E-01 0.500 F -0.036 -0.128 +26° 20' 22.10" 1.000E-01 0.500 F 0.162 -0.454 21.1 V 0.70 -0.43 o 691 0.95 Yes Yes
2020WL1 O C 2008-02-09.13001 1.000E-05 07:08:24.880 1.500E-01 0.500 F -0.081 -0.401 +24° 19' 40.70" 1.000E-01 0.500 F 0.205 0.036 20.8 V 0.70 -0.05 o 691 0.85 Yes Yes
2008CA6 O C 2008-02-09.13802 1.000E-05 07:07:33.080 1.500E-01 0.500 F -0.084 0.013 +22° 39' 30.10" 1.000E-01 0.500 F 0.219 0.002 20.0 V 0.70 -0.43 o 691 0.03 Yes Yes
2008BS2 O C H 2008-02-09.14338 1.000E-05 07:21:08.780 1.500E-01 0.500 F -0.036 0.015 +26° 20' 17.70" 1.000E-01 0.500 F 0.162 -1.002 o 691 2.01 Yes No
2020WL1 O C 2008-02-09.14881 1.000E-05 07:08:25.240 1.500E-01 0.500 F -0.081 0.145 +24° 19' 50.10" 1.000E-01 0.500 F 0.205 -0.276 20.6 V 0.70 -0.25 o 691 0.63 Yes Yes
2008CA6 O C 2008-02-09.15682 1.000E-05 07:07:30.110 1.500E-01 0.500 F -0.084 -0.163 +22° 39' 20.80" 1.000E-01 0.500 F 0.219 -0.061 20.1 V 0.70 -0.33 o 691 0.36 Yes Yes
2008BS2 O C H 2008-02-09.16217 1.000E-05 07:21:07.270 1.500E-01 0.500 F -0.036 0.286 +26° 20' 14.60" 1.000E-01 0.500 F 0.162 -0.226 21.1 V 0.70 -0.43 o 691 0.73 Yes Yes
2004BV102 O C 2008-02-09.17567 1.000E-05 09:45:24.980 1.500E-01 0.500 F 0.087 0.303 +19° 41' 54.00" 1.000E-01 0.500 F 0.406 0.127 18.8 V 0.70 0.26 o 691 0.66 Yes Yes
2008AT28 O C 2008-02-09.18085 1.000E-05 09:29:47.850 1.500E-01 0.500 F 0.137 -0.384 +17° 40' 29.20" 1.000E-01 0.500 F 0.160 0.159 20.2 V 0.70 -0.16 o 691 0.84 Yes Yes
2004BV102 O C 2008-02-09.19332 1.000E-05 09:45:21.920 1.500E-01 0.500 F 0.087 -0.251 +19° 42' 01.60" 1.000E-01 0.500 F 0.406 -0.292 18.6 V 0.70 0.06 o 691 0.77 Yes Yes
2008AT28 O C 2008-02-09.19850 1.000E-05 09:29:46.510 1.500E-01 0.500 F 0.137 -0.061 +17° 40' 42.50" 1.000E-01 0.500 F 0.160 0.958 20.0 V 0.70 -0.36 o 691 1.93 Yes Yes
2004BV102 O C 2008-02-09.21097 1.000E-05 09:45:18.910 1.500E-01 0.500 F 0.087 -0.019 +19° 42' 10.00" 1.000E-01 0.500 F 0.406 0.122 18.7 V 0.70 0.16 o 691 0.25 Yes Yes
2008AT28 O C 2008-02-09.21614 1.000E-05 09:29:45.130 1.500E-01 0.500 F 0.137 -0.262 +17° 40' 54.00" 1.000E-01 0.500 F 0.160 -0.013 20.2 V 0.70 -0.16 o 691 0.53 Yes Yes
Pele O C 2008-02-09.29218 1.000E-05 10:34:37.160 1.500E-01 0.500 F 0.074 -1.382 +03° 44' 29.70" 1.000E-01 0.500 F 0.084 -0.630 20.1 V 0.70 -0.14 o 691 3.05 Yes Yes
Pele O C 2008-02-09.30742 1.000E-05 10:34:36.170 1.500E-01 0.500 F 0.074 -0.212 +03° 44' 39.40" 1.000E-01 0.500 F 0.084 -0.034 20.3 V 0.70 0.06 o 691 0.43 Yes Yes
Pele O C 2008-02-09.32267 1.000E-05 10:34:35.090 1.500E-01 0.500 F 0.074 -0.358 +03° 44' 48.50" 1.000E-01 0.500 F 0.084 -0.043 20.4 V 0.70 0.16 o 691 0.72 Yes Yes
2003QZ29 O C 2008-02-09.33900 1.000E-05 11:09:03.080 1.500E-01 0.500 F 0.086 -0.675 +01° 36' 56.70" 1.000E-01 0.500 F 0.133 0.240 20.7 V 0.70 0.21 o 691 1.46 Yes Yes
2003QZ29 O C 2008-02-09.35661 1.000E-05 11:09:01.650 1.500E-01 0.500 F 0.086 -0.686 +01° 37' 14.50" 1.000E-01 0.500 F 0.133 0.411 20.6 V 0.70 0.11 o 691 1.63 Yes Yes
2003QZ29 O C 2008-02-09.37422 1.000E-05 11:09:00.220 1.500E-01 0.500 F 0.086 -0.668 +01° 37' 31.90" 1.000E-01 0.500 F 0.133 0.183 20.7 V 0.70 0.21 o 691 1.41 Yes Yes
DonQuixote O C 2008-02-09.38891 1.000E-05 11:26:47.410 1.500E-01 0.500 F 0.245 -0.127 +09° 04' 07.40" 1.000E-01 0.500 F 0.037 0.001 19.9 V 0.70 -0.08 o 691 0.25 Yes Yes
DonQuixote O C 2008-02-09.40653 1.000E-05 11:26:46.760 1.500E-01 0.500 F 0.245 -0.443 +09° 04' 09.70" 1.000E-01 0.500 F 0.037 0.045 19.9 V 0.70 -0.08 o 691 0.89 Yes Yes
DonQuixote O C 2008-02-09.42414 1.000E-05 11:26:46.130 1.500E-01 0.500 F 0.245 -0.465 +09° 04' 12.10" 1.000E-01 0.500 F 0.037 0.194 19.8 V 0.70 -0.18 o 691 1.01 Yes Yes
2008CD71 O C 2008-02-09.46082 1.000E-05 11:56:43.990 1.500E-01 0.500 F 0.075 -0.016 -02° 19' 51.50" 1.000E-01 0.500 F 0.152 -0.446 20.4 V 0.70 -0.23 o 691 0.90 Yes Yes
2008CD71 O C 2008-02-09.47606 1.000E-05 11:56:41.930 1.500E-01 0.500 F 0.075 0.048 -02° 20' 18.50" 1.000E-01 0.500 F 0.152 0.065 20.6 V 0.70 -0.03 o 691 0.16 Yes Yes
2008CD71 O C 2008-02-09.49130 1.000E-05 11:56:39.870 1.500E-01 0.500 F 0.075 0.113 -02° 20' 46.10" 1.000E-01 0.500 F 0.152 -0.010 20.3 V 0.70 -0.33 o 691 0.23 Yes Yes
2008CJ116 O C 2008-02-10.18749 1.000E-05 10:05:18.340 1.500E-01 0.500 F 0.148 -0.084 +17° 42' 24.80" 1.000E-01 0.500 F 0.172 -0.073 20.4 V 0.70 -0.43 o 691 0.22 Yes Yes
2003WC25 O C 2008-02-10.18996 1.000E-05 10:14:56.810 1.500E-01 0.500 F 0.077 -0.707 +16° 45' 28.60" 1.000E-01 0.500 F 0.153 0.140 20.9 V 0.70 -0.02 o 691 1.44 Yes Yes
2008CJ116 O C 2008-02-10.20513 1.000E-05 10:05:16.350 1.500E-01 0.500 F 0.148 0.009 +17° 42' 24.60" 1.000E-01 0.500 F 0.172 -0.108 20.5 V 0.70 -0.33 o 691 0.22 Yes Yes
2003WC25 O C 2008-02-10.20759 1.000E-05 10:14:55.630 1.500E-01 0.500 F 0.077 -0.189 +16° 45' 33.10" 1.000E-01 0.500 F 0.153 0.067 20.8 V 0.70 -0.12 o 691 0.40 Yes Yes
2008CJ116 O C 2008-02-10.22279 1.000E-05 10:05:14.350 1.500E-01 0.500 F 0.156 0.058 +17° 42' 24.10" 1.000E-01 0.500 F 0.158 -0.407 20.4 V 0.70 -0.43 o 691 0.83 Yes Yes
2003WC25 O C 2008-02-10.22525 1.000E-05 10:14:54.410 1.500E-01 0.500 F 0.077 -0.179 +16° 45' 37.60" 1.000E-01 0.500 F 0.153 -0.004 20.7 V 0.70 -0.22 o 691 0.36 Yes Yes
2004YC5 O C 2008-02-10.23286 1.000E-05 10:24:31.960 1.500E-01 0.500 F 0.092 0.003 +12° 14' 09.30" 1.000E-01 0.500 F 0.127 -0.197 20.8 V 0.70 -0.50 o 691 0.40 Yes Yes
2004YC5 O C 2008-02-10.25051 1.000E-05 10:24:30.270 1.500E-01 0.500 F 0.092 -0.345 +12° 14' 15.00" 1.000E-01 0.500 F 0.127 -0.142 21.0 V 0.70 -0.30 o 691 0.75 Yes Yes
2004YC5 O C 2008-02-10.26818 1.000E-05 10:24:28.580 1.500E-01 0.500 F 0.092 -0.625 +12° 14' 20.50" 1.000E-01 0.500 F 0.127 -0.283 20.9 V 0.70 -0.40 o 691 1.38 Yes Yes
2008CR118 O C 2008-02-10.35150 1.000E-05 11:08:25.450 1.500E-01 0.500 F 0.129 -1.026 +09° 48' 28.10" 1.000E-01 0.500 F 0.139 0.918 20.3 V 0.70 -0.80 o 691 2.77 Yes Yes
2008CR118 O C 2008-02-10.36913 1.000E-05 11:08:24.520 1.500E-01 0.500 F 0.129 -0.166 +09° 48' 37.20" 1.000E-01 0.500 F 0.139 -0.377 20.8 V 0.70 -0.30 o 691 0.83 Yes Yes
2008CR118 O C 2008-02-10.38678 1.000E-05 11:08:23.480 1.500E-01 0.500 F 0.129 -0.892 +09° 48' 47.70" 1.000E-01 0.500 F 0.139 -0.274 20.8 V 0.70 -0.30 o 691 1.87 Yes Yes
2000EZ148 O C 2008-02-10.46757 1.000E-05 12:05:41.430 1.500E-01 0.500 F 0.234 -0.258 +04° 19' 03.20" 1.000E-01 0.500 F 0.097 -0.026 19.7 V 0.70 -0.15 o 691 0.52 Yes Yes
2000EZ148 O C 2008-02-10.48519 1.000E-05 12:05:40.820 1.500E-01 0.500 F 0.234 -0.298 +04° 19' 06.10" 1.000E-01 0.500 F 0.097 -0.168 19.6 V 0.70 -0.25 o 691 0.69 Yes Yes
2000EZ148 O C 2008-02-10.50281 1.000E-05 12:05:40.210 1.500E-01 0.500 F 0.234 -0.346 +04° 19' 09.20" 1.000E-01 0.500 F 0.097 -0.110 19.7 V 0.70 -0.15 o 691 0.73 Yes Yes
2008CJ116 O C 2008-02-11.17614 1.000E-05 10:03:28.620 1.500E-01 0.500 F 0.121 -0.114 +17° 41' 59.70" 1.000E-01 0.500 F 0.164 -0.289 21.0 V 0.70 0.20 o 691 0.62 Yes Yes
2003WC25 O C 2008-02-11.18106 1.000E-05 10:13:49.240 1.500E-01 0.500 F 0.077 -0.366 +16° 49' 38.90" 1.000E-01 0.500 F 0.153 0.046 o 691 0.74 Yes No
2008CJ116 O C 2008-02-11.19380 1.000E-05 10:03:26.640 1.500E-01 0.500 F 0.121 0.097 +17° 41' 59.30" 1.000E-01 0.500 F 0.164 -0.407 21.0 V 0.70 0.20 o 691 0.84 Yes Yes
2003WC25 O C 2008-02-11.19873 1.000E-05 10:13:48.030 1.500E-01 0.500 F 0.077 -0.166 +16° 49' 43.40" 1.000E-01 0.500 F 0.153 0.009 o 691 0.33 Yes No
2008CJ116 O C 2008-02-11.21145 1.000E-05 10:03:24.660 1.500E-01 0.500 F 0.121 0.370 +17° 41' 59.50" 1.000E-01 0.500 F 0.164 0.096 20.9 V 0.70 0.10 o 691 0.77 Yes Yes
2003WC25 O C 2008-02-11.21638 1.000E-05 10:13:46.770 1.500E-01 0.500 F 0.077 -0.666 +16° 49' 47.80" 1.000E-01 0.500 F 0.153 -0.115 o 691 1.36 Yes No
2000EX106 O C 2008-02-11.23856 1.000E-05 10:41:38.710 1.500E-01 0.500 F -0.036 -0.124 +14° 09' 56.70" 1.000E-01 0.500 F 0.117 0.021 o 691 0.25 Yes No
2000EX106 O C 2008-02-11.25968 1.000E-05 10:41:36.130 1.500E-01 0.500 F -0.036 -0.108 +14° 10' 36.90" 1.000E-01 0.500 F 0.117 0.014 o 691 0.22 Yes No
2000EX106 O C 2008-02-11.27733 1.000E-05 10:41:33.960 1.500E-01 0.500 F -0.036 -0.133 +14° 11' 10.40" 1.000E-01 0.500 F 0.117 -0.050 o 691 0.28 Yes No
2003EE16 O C 2008-02-11.34485 1.000E-05 11:10:04.090 1.500E-01 0.500 F 0.182 -0.116 +06° 20' 21.30" 1.000E-01 0.500 F 0.128 0.052 o 691 0.23 Yes No
2003EE16 O C 2008-02-11.36594 1.000E-05 11:09:58.240 1.500E-01 0.500 F 0.182 0.156 +06° 20' 57.80" 1.000E-01 0.500 F 0.128 -0.281 o 691 0.67 Yes No
2003EE16 O C 2008-02-11.38357 1.000E-05 11:09:53.270 1.500E-01 0.500 F 0.182 -0.801 +06° 21' 29.20" 1.000E-01 0.500 F 0.128 0.381 o 691 1.76 Yes No
2007SV2 O C 2008-02-12.10346 1.000E-05 06:46:41.140 1.500E-01 0.500 F -0.049 -0.336 +28° 28' 14.60" 1.000E-01 0.500 F 0.106 -0.395 20.1 V 0.70 -0.12 o 691 1.06 Yes Yes
2007SV2 O C 2008-02-12.12479 1.000E-05 06:46:46.430 1.500E-01 0.500 F -0.049 0.208 +28° 27' 24.40" 1.000E-01 0.500 F 0.106 -0.044 20.0 V 0.70 -0.22 o 691 0.44 Yes Yes
2007SV2 O C 2008-02-12.14613 1.000E-05 06:46:51.660 1.500E-01 0.500 F -0.049 0.217 +28° 26' 33.00" 1.000E-01 0.500 F 0.106 -0.689 20.0 V 0.70 -0.22 o 691 1.48 Yes Yes
2005OE3 O C 2008-02-12.17302 1.000E-05 09:35:12.040 1.500E-01 0.500 F 0.043 0.193 +12° 49' 26.20" 1.000E-01 0.500 F 0.184 -0.031 20.4 V 0.70 -0.28 o 691 0.40 Yes Yes
2008AU26 O C 2008-02-12.17821 1.000E-05 09:21:25.620 1.500E-01 0.500 F 0.079 -0.012 +11° 29' 46.90" 1.000E-01 0.500 F 0.236 -0.272 20.0 V 0.70 0.35 o 691 0.55 Yes Yes
2008CJ70 O C 2008-02-12.17821 1.000E-05 09:16:00.830 1.500E-01 0.500 F 0.035 -0.211 +10° 29' 59.70" 1.000E-01 0.500 F 0.201 0.049 20.0 V 0.70 0.04 o 691 0.44 Yes Yes
2005OE3 O C 2008-02-12.19069 1.000E-05 09:35:09.000 1.500E-01 0.500 F 0.043 -0.389 +12° 49' 13.10" 1.000E-01 0.500 F 0.184 -0.252 20.3 V 0.70 -0.38 o 691 0.93 Yes Yes
2008CJ70 O C 2008-02-12.19587 1.000E-05 09:15:59.610 1.500E-01 0.500 F 0.035 -0.272 +10° 30' 55.40" 1.000E-01 0.500 F 0.201 -0.260 19.9 V 0.70 -0.06 o 691 0.76 Yes Yes
2008AU26 O C 2008-02-12.19587 1.000E-05 09:21:23.870 1.500E-01 0.500 F 0.079 0.218 +11° 29' 49.20" 1.000E-01 0.500 F 0.236 -0.037 20.1 V 0.70 0.45 o 691 0.45 Yes Yes
2005OE3 O C 2008-02-12.20588 1.000E-05 09:35:06.420 1.500E-01 0.500 F 0.043 -0.337 +12° 49' 02.20" 1.000E-01 0.500 F 0.184 -0.065 20.2 V 0.70 -0.49 o 691 0.69 Yes Yes
2008AU26 O C 2008-02-12.21105 1.000E-05 09:21:22.320 1.500E-01 0.500 F 0.079 -0.127 +11° 29' 51.10" 1.000E-01 0.500 F 0.236 0.120 20.1 V 0.70 0.44 o 691 0.35 Yes Yes
2008CJ70 O C 2008-02-12.21105 1.000E-05 09:15:58.560 1.500E-01 0.500 F 0.035 -0.204 +10° 31' 44.00" 1.000E-01 0.500 F 0.201 0.215 20.0 V 0.70 0.04 o 691 0.60 Yes Yes
2008CP23 O C 2008-02-12.28480 1.000E-05 10:46:53.890 1.500E-01 0.500 F 0.166 0.059 +10° 02' 03.40" 1.000E-01 0.500 F 0.189 0.247 20.0 V 0.70 0.13 o 691 0.51 Yes Yes
2008CP23 O C 2008-02-12.30245 1.000E-05 10:46:53.610 1.500E-01 0.500 F 0.166 0.271 +10° 02' 13.00" 1.000E-01 0.500 F 0.189 0.088 19.8 V 0.70 -0.07 o 691 0.58 Yes Yes
2008CP23 O C 2008-02-12.32008 1.000E-05 10:46:53.300 1.500E-01 0.500 F 0.166 0.109 +10° 02' 22.30" 1.000E-01 0.500 F 0.189 -0.339 19.8 V 0.70 -0.07 o 691 0.72 Yes Yes
2008CR118 O C 2008-02-12.33920 1.000E-05 11:06:35.180 1.500E-01 0.500 F 0.185 -0.396 +10° 08' 30.50" 1.000E-01 0.500 F 0.121 -0.213 20.7 V 0.70 -0.30 o 691 0.90 Yes Yes
2008CR118 O C 2008-02-12.35683 1.000E-05 11:06:34.110 1.500E-01 0.500 F 0.185 -0.217 +10° 08' 41.40" 1.000E-01 0.500 F 0.121 -0.322 20.8 V 0.70 -0.20 o 691 0.78 Yes Yes
2008CR118 O C 2008-02-12.37446 1.000E-05 11:06:32.990 1.500E-01 0.500 F 0.185 -0.750 +10° 08' 52.90" 1.000E-01 0.500 F 0.121 0.181 20.7 V 0.70 -0.30 o 691 1.55 Yes Yes
Pele O C 2008-02-13.22097 1.000E-05 10:30:05.750 1.500E-01 0.612 F 0.149 -0.220 +04° 24' 20.60" 1.000E-01 0.612 F 0.080 0.031 20.6 V 0.70 0.43 o 691 0.36 Yes Yes
1998XZ4 O C 2008-02-13.23106 1.000E-05 10:27:14.350 1.500E-01 0.612 F 0.137 0.431 +04° 09' 57.10" 1.000E-01 0.612 F 0.071 -1.409 20.5 V 0.70 -0.44 o 691 2.41 Yes Yes
Pele O C 2008-02-13.23613 1.000E-05 10:30:04.660 1.500E-01 0.612 F 0.149 -0.278 +04° 24' 30.00" 1.000E-01 0.612 F 0.080 0.025 20.5 V 0.70 0.33 o 691 0.46 Yes Yes
1998XZ4 O C 2008-02-13.24622 1.000E-05 10:27:13.170 1.500E-01 0.612 F 0.137 -0.387 +04° 10' 01.40" 1.000E-01 0.612 F 0.071 0.275 20.7 V 0.70 -0.24 o 691 0.78 Yes Yes
Pele O C 2008-02-13.25128 1.000E-05 10:30:03.590 1.500E-01 0.612 F 0.149 -0.015 +04° 24' 39.20" 1.000E-01 0.612 F 0.080 -0.172 20.5 V 0.70 0.33 o 691 0.28 Yes Yes
1998XZ4 O C 2008-02-13.26139 1.000E-05 10:27:12.070 1.500E-01 0.612 F 0.137 0.024 +04° 10' 03.80" 1.000E-01 0.612 F 0.071 0.058 20.9 V 0.70 -0.04 o 691 0.10 Yes Yes
Pele O C 2008-02-13.27648 1.000E-05 10:30:01.770 1.500E-01 0.612 F 0.149 -0.114 +04° 24' 55.20" 1.000E-01 0.612 F 0.080 0.200 20.2 V 0.70 0.03 o 691 0.38 Yes Yes
1998XZ4 O C 2008-02-13.27648 1.000E-05 10:27:10.950 1.500E-01 0.612 F 0.137 0.064 +04° 10' 06.00" 1.000E-01 0.612 F 0.071 -0.345 20.8 V 0.70 -0.14 o 691 0.57 Yes Yes
Pele O C 2008-02-13.29413 1.000E-05 10:30:00.490 1.500E-01 0.612 F 0.149 -0.223 +04° 25' 06.00" 1.000E-01 0.612 F 0.080 0.059 20.1 V 0.70 -0.07 o 691 0.38 Yes Yes
1998XZ4 O C 2008-02-13.29413 1.000E-05 10:27:09.610 1.500E-01 0.612 F 0.137 -0.318 +04° 10' 09.50" 1.000E-01 0.612 F 0.071 0.112 20.4 V 0.70 -0.54 o 691 0.55 Yes Yes
Pele O C 2008-02-13.31178 1.000E-05 10:29:59.210 1.500E-01 0.612 F 0.149 -0.307 +04° 25' 16.90" 1.000E-01 0.612 F 0.080 0.021 20.2 V 0.70 0.03 o 691 0.50 Yes Yes
1998XZ4 O C 2008-02-13.31178 1.000E-05 10:27:08.310 1.500E-01 0.612 F 0.137 -0.085 +04° 10' 12.40" 1.000E-01 0.612 F 0.071 -0.030 20.4 V 0.70 -0.54 o 691 0.15 Yes Yes
DonQuixote O C 2008-02-13.37248 1.000E-05 11:24:22.890 1.500E-01 0.500 F 0.243 -0.352 +09° 12' 55.00" 1.000E-01 0.500 F 0.040 0.059 19.6 V 0.70 -0.31 o 691 0.72 Yes Yes
1998YP11 O C 2008-02-13.37248 1.000E-05 11:25:49.370 1.500E-01 0.500 F 0.245 -0.355 +09° 25' 35.50" 1.000E-01 0.500 F 0.037 0.095 15.2 V 0.70 -0.17 o 691 0.74 Yes Yes
2000DM1 O C 2008-02-13.37741 1.000E-05 11:40:12.200 1.500E-01 0.500 F 0.108 -0.557 +10° 10' 52.10" 1.000E-01 0.500 F 0.214 -0.078 19.3 V 0.70 0.08 o 691 1.13 Yes Yes
DonQuixote O C 2008-02-13.39013 1.000E-05 11:24:22.210 1.500E-01 0.500 F 0.243 -0.388 +09° 12' 57.40" 1.000E-01 0.500 F 0.040 0.048 19.7 V 0.70 -0.21 o 691 0.78 Yes Yes
1998YP11 O C 2008-02-13.39013 1.000E-05 11:25:51.130 1.500E-01 0.500 F 0.245 -0.417 +09° 26' 21.60" 1.000E-01 0.500 F 0.037 0.102 15.2 V 0.70 -0.17 o 691 0.86 Yes Yes
2000DM1 O C 2008-02-13.39506 1.000E-05 11:40:10.360 1.500E-01 0.500 F 0.108 -0.560 +10° 10' 46.50" 1.000E-01 0.500 F 0.214 -0.255 19.4 V 0.70 0.18 o 691 1.23 Yes Yes
DonQuixote O C 2008-02-13.40542 1.000E-05 11:24:21.630 1.500E-01 0.500 F 0.243 -0.282 +09° 12' 59.50" 1.000E-01 0.500 F 0.040 0.061 19.8 V 0.70 -0.11 o 691 0.58 Yes Yes
1998YP11 O C 2008-02-13.40542 1.000E-05 11:25:52.650 1.500E-01 0.500 F 0.245 -0.546 +09° 27' 01.50" 1.000E-01 0.500 F 0.037 0.080 15.2 V 0.70 -0.17 o 691 1.11 Yes Yes
2000DM1 O C 2008-02-13.41034 1.000E-05 11:40:08.790 1.500E-01 0.500 F 0.108 -0.200 +10° 10' 41.90" 1.000E-01 0.500 F 0.214 -0.138 19.3 V 0.70 0.08 o 691 0.49 Yes Yes
2005EC224 O C 2008-02-24.28052 1.000E-05 08:58:58.700 1.500E-01 0.500 F 0.022 0.091 +14° 46' 37.90" 1.000E-01 0.500 F 0.195 0.159 o 691 0.37 Yes No
2006BA148 O C H 2008-02-24.28586 1.000E-05 09:07:15.590 1.500E-01 0.500 F 0.045 -1.191 +18° 52' 16.20" 1.000E-01 0.500 F 0.128 -0.160 o 691 2.41 Yes No
2005EC224 O C 2008-02-24.30141 1.000E-05 08:58:57.010 1.500E-01 0.500 F 0.022 -0.493 +14° 46' 46.80" 1.000E-01 0.500 F 0.195 -0.124 o 691 1.02 Yes No
2006BA148 O C H 2008-02-24.30676 1.000E-05 09:07:13.590 1.500E-01 0.500 F 0.045 0.324 +18° 52' 15.90" 1.000E-01 0.500 F 0.128 -0.033 21.1 V 0.70 0.11 o 691 0.66 Yes Yes
2005EC224 O C 2008-02-24.32228 1.000E-05 08:58:55.440 1.500E-01 0.500 F 0.022 0.597 +14° 46' 56.10" 1.000E-01 0.500 F 0.195 0.036 o 691 1.20 Yes No
2006BA148 O C H 2008-02-24.32762 1.000E-05 09:07:11.480 1.500E-01 0.500 F 0.045 0.176 +18° 52' 15.80" 1.000E-01 0.500 F 0.128 0.330 20.6 V 0.70 -0.39 o 691 0.76 Yes Yes
2006BA148 O C 2008-02-26.16838 1.000E-05 09:04:16.080 1.500E-01 0.500 F 0.045 -0.501 +18° 51' 26.80" 1.000E-01 0.500 F 0.128 0.508 o 691 1.43 Yes No
2006BA148 O C 2008-02-26.18668 1.000E-05 09:04:14.360 1.500E-01 0.500 F 0.045 -0.169 +18° 51' 25.60" 1.000E-01 0.500 F 0.128 -0.158 o 691 0.46 Yes No
2006BA148 O C 2008-02-26.20498 1.000E-05 09:04:12.650 1.500E-01 0.500 F 0.045 0.326 +18° 51' 25.20" 1.000E-01 0.500 F 0.128 0.003 o 691 0.66 Yes No
2008DW O C 2008-02-26.22212 1.000E-05 11:30:06.580 1.500E-01 0.500 F 0.150 -0.282 +02° 37' 07.30" 1.000E-01 0.500 F 0.183 -0.266 20.0 V 0.70 -0.06 o 691 0.79 Yes Yes
2008DW O C 2008-02-26.23971 1.000E-05 11:30:07.640 1.500E-01 0.500 F 0.150 -0.291 +02° 37' 27.30" 1.000E-01 0.500 F 0.183 -0.138 20.0 V 0.70 -0.06 o 691 0.66 Yes Yes
2008DW O C 2008-02-26.25729 1.000E-05 11:30:08.700 1.500E-01 0.500 F 0.150 -0.079 +02° 37' 47.40" 1.000E-01 0.500 F 0.183 0.102 20.0 V 0.70 -0.06 o 691 0.26 Yes Yes
1990TR O C H 2008-02-26.36927 1.000E-05 12:48:42.670 1.500E-01 0.500 F 0.084 2.064 -02° 32' 15.20" 1.000E-01 0.500 F 0.116 -0.847 20.1 V 0.70 -0.04 o 691 4.46 No Yes
1990TR O C H 2008-02-26.38685 1.000E-05 12:48:41.830 1.500E-01 0.500 F 0.084 0.387 -02° 32' 13.30" 1.000E-01 0.500 F 0.116 -2.289 20.4 V 0.70 0.26 o 691 4.64 No Yes
1990TR O C H 2008-02-26.40445 1.000E-05 12:48:41.150 1.500E-01 0.500 F 0.084 1.134 -02° 32' 08.90" 1.000E-01 0.500 F 0.116 -1.240 20.8 V 0.70 0.66 o 691 3.36 No Yes
Adonis O C H 2008-02-26.43783 1.000E-05 12:57:32.900 1.500E-01 0.500 F 0.185 0.769 -06° 31' 26.50" 1.000E-01 0.500 F 0.132 -1.112 21.0 V 0.70 -0.68 o 691 2.72 Yes Yes
Adonis O C H 2008-02-26.47647 1.000E-05 12:57:29.080 1.500E-01 0.500 F 0.185 -1.367 -06° 31' 04.00" 1.000E-01 0.500 F 0.132 0.445 21.2 V 0.70 -0.48 o 691 2.88 Yes Yes
1999YT O C H 2008-02-26.49612 1.000E-05 17:01:17.910 1.500E-01 0.500 F 0.030 0.520 +09° 49' 40.70" 1.000E-01 0.500 F 0.169 -0.830 o 691 1.96 Yes No
2008BV2 O C H 2008-02-27.17508 1.000E-05 09:28:46.920 1.500E-01 0.500 F 0.093 0.377 +14° 19' 31.80" 1.000E-01 0.500 F 0.202 0.106 o 691 0.86 Yes No
2008BV2 O C H 2008-02-27.19389 1.000E-05 09:28:47.110 1.500E-01 0.500 F 0.093 -0.402 +14° 19' 06.60" 1.000E-01 0.500 F 0.202 0.042 21.7 V 0.70 0.17 o 691 0.89 Yes Yes
Masaakikoyama O C 2008-02-27.34779 1.000E-05 12:27:44.220 1.500E-01 0.500 F 0.169 -0.272 -06° 03' 59.60" 1.000E-01 0.500 F -0.002 0.248 20.0 V 0.70 0.05 o 691 0.74 Yes Yes
Masaakikoyama O C 2008-02-27.36538 1.000E-05 12:27:43.520 1.500E-01 0.500 F 0.169 -0.345 -06° 03' 54.20" 1.000E-01 0.500 F -0.002 0.126 19.8 V 0.70 -0.15 o 691 0.74 Yes Yes
Masaakikoyama O C 2008-02-27.38643 1.000E-05 12:27:42.680 1.500E-01 0.500 F 0.121 -0.393 -06° 03' 47.40" 1.000E-01 0.500 F 0.006 0.296 19.8 V 0.70 -0.14 o 691 0.99 Yes Yes
2005EC224 O C 2008-02-28.14262 1.000E-05 08:54:16.480 1.500E-01 0.500 F 0.001 -0.372 +15° 14' 26.10" 1.000E-01 0.500 F 0.165 0.205 20.3 V 0.70 -0.20 o 691 0.85 Yes Yes
2008AL33 O C t 2008-02-28.15044 1.000E-05 09:12:45.220 1.500E-01 0.500 F 0.018 -0.143 +19° 32' 04.00" 1.000E-01 0.500 F 0.147 -0.018 21.2 V 0.70 -0.20 o 691 0.30 Yes Yes
2005EC224 O C 2008-02-28.16612 1.000E-05 08:54:14.780 1.500E-01 0.500 F 0.001 -0.106 +15° 14' 36.10" 1.000E-01 0.500 F 0.165 0.162 20.3 V 0.70 -0.20 o 691 0.39 Yes Yes
2008AL33 O C t 2008-02-28.17394 1.000E-05 09:12:47.520 1.500E-01 0.500 F 0.018 0.454 +19° 31' 42.90" 1.000E-01 0.500 F 0.147 0.342 21.9 V 0.70 0.50 o 691 1.18 Yes Yes
2005EC224 O C 2008-02-28.18989 1.000E-05 08:54:13.030 1.500E-01 0.500 F 0.001 -0.211 +15° 14' 46.20" 1.000E-01 0.500 F 0.165 0.146 20.4 V 0.70 -0.10 o 691 0.51 Yes Yes
2008AL33 O C t 2008-02-28.19770 1.000E-05 09:12:49.770 1.500E-01 0.500 F 0.018 0.277 +19° 31' 20.70" 1.000E-01 0.500 F 0.147 0.016 21.2 V 0.70 -0.20 o 691 0.58 Yes Yes
2001MR3 O C H 2008-02-28.23115 1.000E-05 11:17:25.860 1.500E-01 0.500 F 0.179 -1.052 -02° 19' 41.70" 1.000E-01 0.500 F 0.029 -0.511 21.4 V 0.70 -0.47 o 691 2.38 Yes Yes
2001MR3 O C H 2008-02-28.24875 1.000E-05 11:17:24.890 1.500E-01 0.500 F 0.179 0.781 -02° 19' 35.00" 1.000E-01 0.500 F 0.029 -0.226 21.4 V 0.70 -0.47 o 691 1.67 Yes Yes
2000CG59 O C H 2008-02-28.26633 1.000E-05 12:22:43.490 1.500E-01 0.500 F 0.076 0.008 +01° 46' 35.60" 1.000E-01 0.500 F 0.204 -0.440 21.2 V 0.70 0.21 o 691 0.88 Yes Yes
2000CG59 O C H 2008-02-28.30154 1.000E-05 12:22:41.260 1.500E-01 0.500 F 0.076 -0.528 +01° 46' 48.40" 1.000E-01 0.500 F 0.204 0.295 20.9 V 0.70 -0.09 o 691 1.22 Yes Yes
2007NS4 O C 2008-02-28.32141 1.000E-05 12:41:37.260 1.500E-01 0.500 F 0.178 -0.231 +01° 15' 58.90" 1.000E-01 0.500 F 0.204 -0.021 20.8 V 0.70 0.81 o 691 0.48 Yes Yes
2002CQ11 O C 2008-02-28.32879 1.000E-05 13:05:13.220 1.500E-01 0.500 F 0.294 0.146 +01° 00' 54.20" 1.000E-01 0.500 F 0.285 1.447 19.6 V 0.70 -0.49 o 691 2.91 Yes Yes
2008CS116 O C 2008-02-28.33641 1.000E-05 12:58:22.720 1.500E-01 0.500 F 0.245 -0.282 +00° 45' 24.10" 1.000E-01 0.500 F 0.301 -0.029 19.1 V 0.70 0.20 o 691 0.58 Yes Yes
2007NS4 O C 2008-02-28.33903 1.000E-05 12:41:34.740 1.500E-01 0.500 F 0.178 -0.157 +01° 16' 07.40" 1.000E-01 0.500 F 0.204 0.148 20.7 V 0.70 0.71 o 691 0.44 Yes Yes
2002CQ11 O C 2008-02-28.34640 1.000E-05 13:05:11.270 1.500E-01 0.500 F 0.294 0.268 +01° 01' 10.30" 1.000E-01 0.500 F 0.285 0.012 19.9 V 0.70 -0.19 o 691 0.54 Yes Yes
2008CS116 O C 2008-02-28.35403 1.000E-05 12:58:20.040 1.500E-01 0.500 F 0.259 0.276 +00° 44' 42.20" 1.000E-01 0.500 F 0.285 -0.201 18.8 V 0.70 -0.10 o 691 0.69 Yes Yes
2007NS4 O C 2008-02-28.35664 1.000E-05 12:41:32.210 1.500E-01 0.500 F 0.178 -0.191 +01° 16' 15.80" 1.000E-01 0.500 F 0.204 0.224 20.5 V 0.70 0.51 o 691 0.61 Yes Yes
2002CQ11 O C 2008-02-28.36402 1.000E-05 13:05:09.290 1.500E-01 0.500 F 0.294 0.068 +01° 01' 27.80" 1.000E-01 0.500 F 0.285 -0.041 19.9 V 0.70 -0.19 o 691 0.16 Yes Yes
2008CS116 O C 2008-02-28.37163 1.000E-05 12:58:17.290 1.500E-01 0.500 F 0.259 -0.098 +00° 44' 00.80" 1.000E-01 0.500 F 0.285 0.033 18.9 V 0.70 0.00 o 691 0.21 Yes Yes
Bede O C t 2008-02-28.44462 1.000E-05 13:19:45.900 1.500E-01 0.500 F 0.030 0.570 -13° 30' 36.30" 1.000E-01 0.500 F 0.006 0.444 15.4 V 0.70 0.19 o 691 1.45 Yes Yes
1994TW1 O C 2008-02-28.44462 1.000E-05 13:21:12.050 1.500E-01 0.500 F 0.183 -0.281 -13° 20' 46.00" 1.000E-01 0.500 F -0.008 -0.026 19.0 V 0.70 0.10 o 691 0.56 Yes Yes
Bede O C H 2008-02-28.46227 1.000E-05 13:19:45.650 1.500E-01 0.500 F 0.030 0.113 -13° 31' 26.00" 1.000E-01 0.500 F 0.006 -1.110 o 691 2.24 Yes No
1994TW1 O C 2008-02-28.46227 1.000E-05 13:21:10.770 1.500E-01 0.500 F 0.183 -0.269 -13° 20' 52.10" 1.000E-01 0.500 F -0.008 0.052 19.0 V 0.70 0.11 o 691 0.55 Yes Yes

[1-200] [201-400] [401-600] [601-800] [801-1000] [1001-1200] [1201-1400] [1401-1600] [1601-1800] [1801-2000] [2001-2200] [2201-2400] [2401-2600] [2601-2800] [2801-3000] [3001-3200] [3201-3400] [3401-3600] [3601-3800] [3801-4000] [4001-4200] [4201-4400] [4401-4600] [4601-4800] [4801-5000] [5001-5200] [5201-5400] [5401-5600] [5601-5800] [5801-6000] [6001-6200] [6201-6400] [6401-6600] [6601-6800] [6801-7000] [7001-7200] [7201-7400] [7401-7600] [7601-7800] [7801-8000] [8001-8200] [8201-8400] [8401-8600] [8601-8800] [8801-9000] [9001-9200] [9201-9400] [9401-9600] [9601-9800] [9801-10000] [10001-10200] [10201-10400] [10401-10600] [10601-10800] [10801-11000] [11001-11200] [11201-11400] [11401-11600] [11601-11800] [11801-12000] [12001-12200] [12201-12400] [12401-12600] [12601-12800] [12801-13000] [13001-13200] [13201-13400] [13401-13600] [13601-13800] [13801-14000] [14001-14200] [14201-14400] [14401-14600] [14601-14800] [14801-15000] [15001-15200] [15201-15400] [15401-15600] [15601-15800] [15801-16000] [16001-16200] [16201-16400] [16401-16600] [16601-16800] [16801-17000] [17001-17200] [17201-17400] [17401-17600] [17601-17800] [17801-18000] [18001-18200] [18201-18400] [18401-18600] [18601-18800] [18801-19000] [19001-19200] [19201-19400] [19401-19600] [19601-19800] [19801-20000] [20001-20200] [20201-20400] [20401-20600] [20601-20800] [20801-21000] [21001-21200] [21201-21400] [21401-21600] [21601-21800] [21801-22000] [22001-22200] [22201-22400] [22401-22600] [22601-22800] [22801-23000] [23001-23200] [23201-23400] [23401-23600] [23601-23800] [23801-24000] [24001-24200] [24201-24400] [24401-24600] [24601-24800] [24801-25000] [25001-25200] [25201-25400] [25401-25600] [25601-25800] [25801-26000] [26001-26200] [26201-26400] [26401-26600] [26601-26800] [26801-27000] [27001-27200] [27201-27400] [27401-27600] [27601-27800] [27801-28000] [28001-28200] [28201-28400] [28401-28600] [28601-28800] [28801-29000] [29001-29200] [29201-29400] [29401-29600] [29601-29800] [29801-30000] [30001-30200] [30201-30400] [30401-30600] [30601-30800] [30801-31000] [31001-31200] [31201-31400] [31401-31600] [31601-31800] [31801-32000] [32001-32200] [32201-32400] [32401-32600] [32601-32800] [32801-33000] [33001-33200] [33201-33400] [33401-33600] [33601-33800] [33801-34000] [34001-34200] [34201-34400] [34401-34600] [34601-34800] [34801-35000] [35001-35200] [35201-35400] [35401-35600] [35601-35800] [35801-36000] [36001-36200] [36201-36400] [36401-36600] [36601-36800] [36801-37000] [37001-37200] [37201-37400] [37401-37600] [37601-37800] [37801-38000] [38001-38200] [38201-38400] [38401-38600] [38601-38800] [38801-39000] [39001-39200] [39201-39400] [39401-39600] [39601-39800] [39801-40000] [40001-40200] [40201-40400] [40401-40600] [40601-40800] [40801-41000] [41001-41200] [41201-41400] [41401-41600] [41601-41800] [41801-42000] [42001-42200] [42201-42400] [42401-42600] [42601-42800] [42801-43000] [43001-43200] [43201-43400] [43401-43600] [43601-43800] [43801-44000] [44001-44200] [44201-44400] [44401-44600] [44601-44800] [44801-45000] [45001-45200] [45201-45400] [45401-45600] [45601-45800] [45801-46000] [46001-46200] [46201-46400] [46401-46600] [46601-46800] [46801-47000] [47001-47200] [47201-47400] [47401-47600] [47601-47800] [47801-48000] [48001-48200] [48201-48400] [48401-48600] [48601-48800] [48801-49000] [49001-49200] [49201-49400] [49401-49600] [49601-49800] [49801-50000] [50001-50200] [50201-50388]